sensor_id;sensor_type;location;lat;lon;timestamp;P1;durP1;ratioP1;P2;durP2;ratioP2
1693;SDS011;844;47.058;15.472;2023-02-14T00:00:28;12.90;;;9.73;;
1693;SDS011;844;47.058;15.472;2023-02-14T00:02:59;14.60;;;10.63;;
1693;SDS011;844;47.058;15.472;2023-02-14T00:05:31;12.30;;;10.07;;
1693;SDS011;844;47.058;15.472;2023-02-14T00:08:01;13.40;;;10.20;;
1693;SDS011;844;47.058;15.472;2023-02-14T00:10:32;10.50;;;9.40;;
1693;SDS011;844;47.058;15.472;2023-02-14T00:13:03;15.23;;;10.30;;
1693;SDS011;844;47.058;15.472;2023-02-14T00:15:33;14.30;;;10.47;;
1693;SDS011;844;47.058;15.472;2023-02-14T00:18:02;16.40;;;11.60;;
1693;SDS011;844;47.058;15.472;2023-02-14T00:23:05;13.13;;;10.67;;
1693;SDS011;844;47.058;15.472;2023-02-14T00:25:36;11.53;;;9.50;;
1693;SDS011;844;47.058;15.472;2023-02-14T00:28:06;12.67;;;11.00;;
1693;SDS011;844;47.058;15.472;2023-02-14T00:30:36;11.83;;;9.73;;
1693;SDS011;844;47.058;15.472;2023-02-14T00:33:07;14.90;;;12.03;;
1693;SDS011;844;47.058;15.472;2023-02-14T00:35:39;17.03;;;11.60;;
1693;SDS011;844;47.058;15.472;2023-02-14T00:38:09;12.50;;;10.17;;
1693;SDS011;844;47.058;15.472;2023-02-14T00:40:40;16.70;;;12.00;;
1693;SDS011;844;47.058;15.472;2023-02-14T00:43:10;16.00;;;11.07;;
1693;SDS011;844;47.058;15.472;2023-02-14T00:45:41;18.10;;;12.33;;
1693;SDS011;844;47.058;15.472;2023-02-14T00:48:11;18.40;;;10.93;;
1693;SDS011;844;47.058;15.472;2023-02-14T00:50:43;18.07;;;11.10;;
1693;SDS011;844;47.058;15.472;2023-02-14T00:53:14;13.40;;;11.80;;
1693;SDS011;844;47.058;15.472;2023-02-14T00:55:45;13.17;;;11.00;;
1693;SDS011;844;47.058;15.472;2023-02-14T00:58:16;14.73;;;11.60;;
1693;SDS011;844;47.058;15.472;2023-02-14T01:00:47;14.90;;;12.77;;
1693;SDS011;844;47.058;15.472;2023-02-14T01:03:18;15.47;;;11.23;;
1693;SDS011;844;47.058;15.472;2023-02-14T01:05:52;14.43;;;11.40;;
1693;SDS011;844;47.058;15.472;2023-02-14T01:08:23;14.27;;;10.90;;
1693;SDS011;844;47.058;15.472;2023-02-14T01:10:54;17.20;;;10.93;;
1693;SDS011;844;47.058;15.472;2023-02-14T01:13:25;10.90;;;9.20;;
1693;SDS011;844;47.058;15.472;2023-02-14T01:15:57;16.93;;;10.53;;
1693;SDS011;844;47.058;15.472;2023-02-14T01:18:30;18.73;;;11.57;;
1693;SDS011;844;47.058;15.472;2023-02-14T01:21:10;15.17;;;10.70;;
1693;SDS011;844;47.058;15.472;2023-02-14T01:23:42;14.03;;;11.27;;
1693;SDS011;844;47.058;15.472;2023-02-14T01:26:14;15.17;;;10.40;;
1693;SDS011;844;47.058;15.472;2023-02-14T01:28:48;15.57;;;10.77;;
1693;SDS011;844;47.058;15.472;2023-02-14T01:31:20;13.60;;;9.73;;
1693;SDS011;844;47.058;15.472;2023-02-14T01:33:54;11.77;;;10.50;;
1693;SDS011;844;47.058;15.472;2023-02-14T01:36:28;13.47;;;11.00;;
1693;SDS011;844;47.058;15.472;2023-02-14T01:39:03;11.23;;;9.83;;
1693;SDS011;844;47.058;15.472;2023-02-14T01:41:35;11.10;;;9.40;;
1693;SDS011;844;47.058;15.472;2023-02-14T01:47:11;10.53;;;9.40;;
1693;SDS011;844;47.058;15.472;2023-02-14T01:49:42;11.67;;;9.10;;
1693;SDS011;844;47.058;15.472;2023-02-14T01:52:18;17.00;;;9.63;;
1693;SDS011;844;47.058;15.472;2023-02-14T01:54:51;11.90;;;9.13;;
1693;SDS011;844;47.058;15.472;2023-02-14T01:57:26;9.73;;;8.70;;
1693;SDS011;844;47.058;15.472;2023-02-14T02:00:02;10.47;;;8.30;;
1693;SDS011;844;47.058;15.472;2023-02-14T02:02:51;11.13;;;9.87;;
1693;SDS011;844;47.058;15.472;2023-02-14T02:05:22;10.50;;;9.50;;
1693;SDS011;844;47.058;15.472;2023-02-14T02:07:54;11.63;;;9.40;;
1693;SDS011;844;47.058;15.472;2023-02-14T02:10:27;12.20;;;9.50;;
1693;SDS011;844;47.058;15.472;2023-02-14T02:12:58;10.47;;;9.13;;
1693;SDS011;844;47.058;15.472;2023-02-14T02:15:33;10.57;;;9.47;;
1693;SDS011;844;47.058;15.472;2023-02-14T02:18:09;13.87;;;8.90;;
1693;SDS011;844;47.058;15.472;2023-02-14T02:27:16;11.00;;;8.77;;
1693;SDS011;844;47.058;15.472;2023-02-14T02:33:44;13.87;;;8.97;;
1693;SDS011;844;47.058;15.472;2023-02-14T02:36:32;14.00;;;8.70;;
1693;SDS011;844;47.058;15.472;2023-02-14T02:39:20;12.40;;;9.50;;
1693;SDS011;844;47.058;15.472;2023-02-14T02:42:04;12.47;;;9.27;;
1693;SDS011;844;47.058;15.472;2023-02-14T02:44:41;9.90;;;8.90;;
1693;SDS011;844;47.058;15.472;2023-02-14T02:47:16;13.40;;;9.50;;
1693;SDS011;844;47.058;15.472;2023-02-14T02:49:53;12.90;;;9.33;;
1693;SDS011;844;47.058;15.472;2023-02-14T02:52:46;15.13;;;9.00;;
1693;SDS011;844;47.058;15.472;2023-02-14T02:55:40;10.23;;;7.47;;
1693;SDS011;844;47.058;15.472;2023-02-14T02:58:31;12.33;;;9.53;;
1693;SDS011;844;47.058;15.472;2023-02-14T03:01:05;15.13;;;9.33;;
1693;SDS011;844;47.058;15.472;2023-02-14T03:03:40;11.70;;;9.70;;
1693;SDS011;844;47.058;15.472;2023-02-14T03:06:30;11.10;;;8.60;;
1693;SDS011;844;47.058;15.472;2023-02-14T03:09:47;12.70;;;8.37;;
1693;SDS011;844;47.058;15.472;2023-02-14T03:12:22;12.50;;;9.60;;
1693;SDS011;844;47.058;15.472;2023-02-14T03:15:20;11.43;;;8.53;;
1693;SDS011;844;47.058;15.472;2023-02-14T03:17:56;12.23;;;8.67;;
1693;SDS011;844;47.058;15.472;2023-02-14T03:20:48;14.70;;;8.80;;
1693;SDS011;844;47.058;15.472;2023-02-14T03:23:24;10.17;;;7.87;;
1693;SDS011;844;47.058;15.472;2023-02-14T03:26:03;11.07;;;9.40;;
1693;SDS011;844;47.058;15.472;2023-02-14T03:28:42;10.63;;;9.00;;
1693;SDS011;844;47.058;15.472;2023-02-14T03:31:19;12.30;;;9.43;;
1693;SDS011;844;47.058;15.472;2023-02-14T03:33:57;12.50;;;10.10;;
1693;SDS011;844;47.058;15.472;2023-02-14T03:36:30;10.60;;;8.43;;
1693;SDS011;844;47.058;15.472;2023-02-14T03:39:04;12.27;;;10.43;;
1693;SDS011;844;47.058;15.472;2023-02-14T03:41:40;14.30;;;11.80;;
1693;SDS011;844;47.058;15.472;2023-02-14T03:44:12;16.90;;;11.60;;
1693;SDS011;844;47.058;15.472;2023-02-14T03:46:49;16.97;;;12.00;;
1693;SDS011;844;47.058;15.472;2023-02-14T03:49:21;13.50;;;11.27;;
1693;SDS011;844;47.058;15.472;2023-02-14T03:51:55;11.00;;;9.40;;
1693;SDS011;844;47.058;15.472;2023-02-14T03:54:26;11.43;;;9.80;;
1693;SDS011;844;47.058;15.472;2023-02-14T03:57:04;12.47;;;10.47;;
1693;SDS011;844;47.058;15.472;2023-02-14T03:59:40;11.47;;;10.00;;
1693;SDS011;844;47.058;15.472;2023-02-14T04:02:12;10.77;;;9.37;;
1693;SDS011;844;47.058;15.472;2023-02-14T04:04:49;14.10;;;11.87;;
1693;SDS011;844;47.058;15.472;2023-02-14T04:07:22;12.27;;;10.97;;
1693;SDS011;844;47.058;15.472;2023-02-14T04:09:53;14.13;;;10.47;;
1693;SDS011;844;47.058;15.472;2023-02-14T04:12:25;11.10;;;9.37;;
1693;SDS011;844;47.058;15.472;2023-02-14T04:15:05;11.47;;;10.03;;
1693;SDS011;844;47.058;15.472;2023-02-14T04:17:36;14.63;;;11.63;;
1693;SDS011;844;47.058;15.472;2023-02-14T04:20:24;11.20;;;9.07;;
1693;SDS011;844;47.058;15.472;2023-02-14T04:22:54;15.17;;;10.20;;
1693;SDS011;844;47.058;15.472;2023-02-14T04:25:24;14.03;;;11.20;;
1693;SDS011;844;47.058;15.472;2023-02-14T04:27:56;16.47;;;10.73;;
1693;SDS011;844;47.058;15.472;2023-02-14T04:30:27;11.80;;;10.40;;
1693;SDS011;844;47.058;15.472;2023-02-14T04:32:58;10.47;;;8.20;;
1693;SDS011;844;47.058;15.472;2023-02-14T04:35:28;11.50;;;9.10;;
1693;SDS011;844;47.058;15.472;2023-02-14T04:37:59;14.07;;;10.43;;
1693;SDS011;844;47.058;15.472;2023-02-14T04:40:31;14.87;;;10.57;;
1693;SDS011;844;47.058;15.472;2023-02-14T04:43:02;13.33;;;11.17;;
1693;SDS011;844;47.058;15.472;2023-02-14T04:45:35;14.10;;;10.90;;
1693;SDS011;844;47.058;15.472;2023-02-14T04:48:05;15.37;;;10.70;;
1693;SDS011;844;47.058;15.472;2023-02-14T04:50:36;14.77;;;10.97;;
1693;SDS011;844;47.058;15.472;2023-02-14T04:53:06;11.50;;;9.70;;
1693;SDS011;844;47.058;15.472;2023-02-14T04:55:37;16.50;;;12.77;;
1693;SDS011;844;47.058;15.472;2023-02-14T04:58:10;11.13;;;9.70;;
1693;SDS011;844;47.058;15.472;2023-02-14T05:00:40;16.43;;;11.23;;
1693;SDS011;844;47.058;15.472;2023-02-14T05:03:11;15.53;;;11.60;;
1693;SDS011;844;47.058;15.472;2023-02-14T05:05:41;13.83;;;11.27;;
1693;SDS011;844;47.058;15.472;2023-02-14T05:08:10;14.50;;;12.67;;
1693;SDS011;844;47.058;15.472;2023-02-14T05:10:42;15.50;;;12.30;;
1693;SDS011;844;47.058;15.472;2023-02-14T05:13:15;16.27;;;10.87;;
1693;SDS011;844;47.058;15.472;2023-02-14T05:15:45;17.80;;;11.73;;
1693;SDS011;844;47.058;15.472;2023-02-14T05:18:16;12.90;;;10.70;;
1693;SDS011;844;47.058;15.472;2023-02-14T05:20:48;16.00;;;11.27;;
1693;SDS011;844;47.058;15.472;2023-02-14T05:23:18;13.40;;;11.30;;
1693;SDS011;844;47.058;15.472;2023-02-14T05:25:49;14.33;;;11.07;;
1693;SDS011;844;47.058;15.472;2023-02-14T05:28:22;18.90;;;11.50;;
1693;SDS011;844;47.058;15.472;2023-02-14T05:30:53;15.80;;;12.90;;
1693;SDS011;844;47.058;15.472;2023-02-14T05:33:25;14.23;;;12.70;;
1693;SDS011;844;47.058;15.472;2023-02-14T05:35:57;14.93;;;11.97;;
1693;SDS011;844;47.058;15.472;2023-02-14T05:38:29;15.07;;;12.40;;
1693;SDS011;844;47.058;15.472;2023-02-14T05:41:00;13.57;;;11.10;;
1693;SDS011;844;47.058;15.472;2023-02-14T05:43:32;15.87;;;12.90;;
1693;SDS011;844;47.058;15.472;2023-02-14T05:46:02;18.40;;;13.20;;
1693;SDS011;844;47.058;15.472;2023-02-14T05:48:32;13.60;;;11.20;;
1693;SDS011;844;47.058;15.472;2023-02-14T05:51:03;15.60;;;11.70;;
1693;SDS011;844;47.058;15.472;2023-02-14T05:53:34;15.97;;;11.40;;
1693;SDS011;844;47.058;15.472;2023-02-14T05:56:05;16.30;;;13.00;;
1693;SDS011;844;47.058;15.472;2023-02-14T05:58:36;13.20;;;10.83;;
1693;SDS011;844;47.058;15.472;2023-02-14T06:01:07;23.63;;;11.97;;
1693;SDS011;844;47.058;15.472;2023-02-14T06:03:37;17.80;;;12.50;;
1693;SDS011;844;47.058;15.472;2023-02-14T06:06:08;16.70;;;12.13;;
1693;SDS011;844;47.058;15.472;2023-02-14T06:08:40;16.37;;;10.27;;
1693;SDS011;844;47.058;15.472;2023-02-14T06:11:11;14.00;;;12.47;;
1693;SDS011;844;47.058;15.472;2023-02-14T06:13:43;14.90;;;11.27;;
1693;SDS011;844;47.058;15.472;2023-02-14T06:16:13;16.00;;;12.13;;
1693;SDS011;844;47.058;15.472;2023-02-14T06:18:43;19.90;;;13.17;;
1693;SDS011;844;47.058;15.472;2023-02-14T06:21:14;17.13;;;14.97;;
1693;SDS011;844;47.058;15.472;2023-02-14T06:23:44;18.02;;;13.40;;
1693;SDS011;844;47.058;15.472;2023-02-14T06:26:14;17.27;;;13.82;;
1693;SDS011;844;47.058;15.472;2023-02-14T06:28:46;13.97;;;10.60;;
1693;SDS011;844;47.058;15.472;2023-02-14T06:31:21;13.33;;;11.67;;
1693;SDS011;844;47.058;15.472;2023-02-14T06:33:52;18.53;;;11.30;;
1693;SDS011;844;47.058;15.472;2023-02-14T06:36:23;20.00;;;13.07;;
1693;SDS011;844;47.058;15.472;2023-02-14T06:38:53;14.20;;;10.80;;
1693;SDS011;844;47.058;15.472;2023-02-14T06:41:23;18.33;;;12.83;;
1693;SDS011;844;47.058;15.472;2023-02-14T06:43:56;16.03;;;12.97;;
1693;SDS011;844;47.058;15.472;2023-02-14T06:46:25;14.37;;;11.57;;
1693;SDS011;844;47.058;15.472;2023-02-14T06:48:56;13.67;;;12.10;;
1693;SDS011;844;47.058;15.472;2023-02-14T06:51:27;20.23;;;13.20;;
1693;SDS011;844;47.058;15.472;2023-02-14T06:53:57;17.60;;;13.17;;
1693;SDS011;844;47.058;15.472;2023-02-14T06:56:29;20.70;;;14.00;;
1693;SDS011;844;47.058;15.472;2023-02-14T06:59:01;21.07;;;13.90;;
1693;SDS011;844;47.058;15.472;2023-02-14T07:01:32;15.47;;;13.23;;
1693;SDS011;844;47.058;15.472;2023-02-14T07:04:02;20.13;;;13.90;;
1693;SDS011;844;47.058;15.472;2023-02-14T07:06:33;19.63;;;14.53;;
1693;SDS011;844;47.058;15.472;2023-02-14T07:09:04;19.83;;;15.10;;
1693;SDS011;844;47.058;15.472;2023-02-14T07:11:35;17.07;;;15.27;;
1693;SDS011;844;47.058;15.472;2023-02-14T07:14:07;26.20;;;18.67;;
1693;SDS011;844;47.058;15.472;2023-02-14T07:16:37;27.77;;;19.97;;
1693;SDS011;844;47.058;15.472;2023-02-14T07:19:07;23.77;;;17.80;;
1693;SDS011;844;47.058;15.472;2023-02-14T07:21:37;22.50;;;16.03;;
1693;SDS011;844;47.058;15.472;2023-02-14T07:24:07;20.80;;;15.57;;
1693;SDS011;844;47.058;15.472;2023-02-14T07:26:37;25.30;;;17.00;;
1693;SDS011;844;47.058;15.472;2023-02-14T07:29:09;17.77;;;14.80;;
1693;SDS011;844;47.058;15.472;2023-02-14T07:31:39;22.47;;;15.20;;
1693;SDS011;844;47.058;15.472;2023-02-14T07:34:10;17.90;;;13.00;;
1693;SDS011;844;47.058;15.472;2023-02-14T07:36:40;19.17;;;14.30;;
1693;SDS011;844;47.058;15.472;2023-02-14T07:39:11;20.17;;;14.10;;
1693;SDS011;844;47.058;15.472;2023-02-14T07:41:40;18.10;;;14.23;;
1693;SDS011;844;47.058;15.472;2023-02-14T07:44:13;17.30;;;14.53;;
1693;SDS011;844;47.058;15.472;2023-02-14T07:46:44;25.60;;;15.83;;
1693;SDS011;844;47.058;15.472;2023-02-14T07:49:14;19.73;;;14.17;;
1693;SDS011;844;47.058;15.472;2023-02-14T07:51:44;19.53;;;14.27;;
1693;SDS011;844;47.058;15.472;2023-02-14T07:54:14;17.90;;;14.10;;
1693;SDS011;844;47.058;15.472;2023-02-14T07:56:46;23.00;;;17.03;;
1693;SDS011;844;47.058;15.472;2023-02-14T07:59:20;19.43;;;15.40;;
1693;SDS011;844;47.058;15.472;2023-02-14T08:01:52;21.77;;;16.37;;
1693;SDS011;844;47.058;15.472;2023-02-14T08:04:22;23.57;;;16.30;;
1693;SDS011;844;47.058;15.472;2023-02-14T08:07:00;19.03;;;15.57;;
1693;SDS011;844;47.058;15.472;2023-02-14T08:09:30;17.10;;;15.20;;
1693;SDS011;844;47.058;15.472;2023-02-14T08:12:00;21.10;;;14.13;;
1693;SDS011;844;47.058;15.472;2023-02-14T08:14:49;20.37;;;15.60;;
1693;SDS011;844;47.058;15.472;2023-02-14T08:17:20;19.77;;;15.83;;
1693;SDS011;844;47.058;15.472;2023-02-14T08:19:50;19.70;;;15.23;;
1693;SDS011;844;47.058;15.472;2023-02-14T08:22:21;20.37;;;14.70;;
1693;SDS011;844;47.058;15.472;2023-02-14T08:24:51;22.13;;;15.47;;
1693;SDS011;844;47.058;15.472;2023-02-14T08:27:22;20.13;;;16.40;;
1693;SDS011;844;47.058;15.472;2023-02-14T08:29:53;20.10;;;16.23;;
1693;SDS011;844;47.058;15.472;2023-02-14T08:32:23;24.60;;;16.30;;
1693;SDS011;844;47.058;15.472;2023-02-14T08:34:53;22.97;;;16.47;;
1693;SDS011;844;47.058;15.472;2023-02-14T08:37:24;18.73;;;16.30;;
1693;SDS011;844;47.058;15.472;2023-02-14T08:39:54;16.30;;;13.30;;
1693;SDS011;844;47.058;15.472;2023-02-14T08:42:24;18.27;;;15.00;;
1693;SDS011;844;47.058;15.472;2023-02-14T08:44:56;22.23;;;16.00;;
1693;SDS011;844;47.058;15.472;2023-02-14T08:47:26;22.23;;;16.10;;
1693;SDS011;844;47.058;15.472;2023-02-14T08:49:57;19.50;;;16.13;;
1693;SDS011;844;47.058;15.472;2023-02-14T08:52:27;26.93;;;17.30;;
1693;SDS011;844;47.058;15.472;2023-02-14T08:54:57;21.20;;;15.00;;
1693;SDS011;844;47.058;15.472;2023-02-14T08:57:28;19.73;;;17.03;;
1693;SDS011;844;47.058;15.472;2023-02-14T09:00:00;24.27;;;16.23;;
1693;SDS011;844;47.058;15.472;2023-02-14T09:02:31;17.97;;;16.13;;
1693;SDS011;844;47.058;15.472;2023-02-14T09:05:02;20.73;;;17.60;;
1693;SDS011;844;47.058;15.472;2023-02-14T09:07:36;25.40;;;18.00;;
1693;SDS011;844;47.058;15.472;2023-02-14T09:10:07;24.60;;;18.50;;
1693;SDS011;844;47.058;15.472;2023-02-14T09:12:38;18.83;;;16.37;;
1693;SDS011;844;47.058;15.472;2023-02-14T09:15:11;21.47;;;18.77;;
1693;SDS011;844;47.058;15.472;2023-02-14T09:17:42;20.20;;;16.37;;
1693;SDS011;844;47.058;15.472;2023-02-14T09:20:12;22.97;;;16.87;;
1693;SDS011;844;47.058;15.472;2023-02-14T09:22:43;21.00;;;16.03;;
1693;SDS011;844;47.058;15.472;2023-02-14T09:25:15;20.20;;;16.50;;
1693;SDS011;844;47.058;15.472;2023-02-14T09:27:45;19.13;;;16.27;;
1693;SDS011;844;47.058;15.472;2023-02-14T09:30:17;20.47;;;16.37;;
1693;SDS011;844;47.058;15.472;2023-02-14T09:32:50;19.37;;;14.00;;
1693;SDS011;844;47.058;15.472;2023-02-14T09:35:20;23.53;;;16.87;;
1693;SDS011;844;47.058;15.472;2023-02-14T09:37:50;17.77;;;13.40;;
1693;SDS011;844;47.058;15.472;2023-02-14T09:40:37;20.90;;;17.37;;
1693;SDS011;844;47.058;15.472;2023-02-14T09:43:08;21.13;;;15.00;;
1693;SDS011;844;47.058;15.472;2023-02-14T09:45:46;21.00;;;16.17;;
1693;SDS011;844;47.058;15.472;2023-02-14T09:48:23;22.13;;;16.43;;
1693;SDS011;844;47.058;15.472;2023-02-14T09:50:57;22.10;;;16.47;;
1693;SDS011;844;47.058;15.472;2023-02-14T09:53:31;22.03;;;17.27;;
1693;SDS011;844;47.058;15.472;2023-02-14T09:56:04;19.23;;;15.20;;
1693;SDS011;844;47.058;15.472;2023-02-14T09:58:41;17.47;;;15.57;;
1693;SDS011;844;47.058;15.472;2023-02-14T10:01:20;22.77;;;16.37;;
1693;SDS011;844;47.058;15.472;2023-02-14T10:03:57;19.23;;;16.53;;
1693;SDS011;844;47.058;15.472;2023-02-14T10:06:47;19.70;;;16.70;;
1693;SDS011;844;47.058;15.472;2023-02-14T10:09:23;24.90;;;18.80;;
1693;SDS011;844;47.058;15.472;2023-02-14T10:12:04;27.70;;;18.00;;
1693;SDS011;844;47.058;15.472;2023-02-14T10:14:38;21.50;;;15.43;;
1693;SDS011;844;47.058;15.472;2023-02-14T10:17:12;17.83;;;15.27;;
1693;SDS011;844;47.058;15.472;2023-02-14T10:19:45;17.97;;;15.30;;
1693;SDS011;844;47.058;15.472;2023-02-14T10:22:17;17.67;;;15.47;;
1693;SDS011;844;47.058;15.472;2023-02-14T10:24:50;18.83;;;16.23;;
1693;SDS011;844;47.058;15.472;2023-02-14T10:27:27;17.53;;;13.90;;
1693;SDS011;844;47.058;15.472;2023-02-14T10:30:00;18.90;;;15.43;;
1693;SDS011;844;47.058;15.472;2023-02-14T10:32:34;22.00;;;17.50;;
1693;SDS011;844;47.058;15.472;2023-02-14T10:35:12;18.40;;;15.40;;
1693;SDS011;844;47.058;15.472;2023-02-14T10:37:54;19.10;;;16.17;;
1693;SDS011;844;47.058;15.472;2023-02-14T10:40:35;18.47;;;16.50;;
1693;SDS011;844;47.058;15.472;2023-02-14T10:43:12;15.67;;;14.17;;
1693;SDS011;844;47.058;15.472;2023-02-14T10:45:50;16.73;;;15.07;;
1693;SDS011;844;47.058;15.472;2023-02-14T10:48:29;18.10;;;15.23;;
1693;SDS011;844;47.058;15.472;2023-02-14T10:51:02;16.33;;;14.67;;
1693;SDS011;844;47.058;15.472;2023-02-14T10:53:38;17.73;;;14.67;;
1693;SDS011;844;47.058;15.472;2023-02-14T10:56:16;16.87;;;15.23;;
1693;SDS011;844;47.058;15.472;2023-02-14T10:58:49;17.37;;;15.50;;
1693;SDS011;844;47.058;15.472;2023-02-14T11:01:22;19.13;;;16.40;;
1693;SDS011;844;47.058;15.472;2023-02-14T11:03:56;19.50;;;14.60;;
1693;SDS011;844;47.058;15.472;2023-02-14T11:06:30;17.40;;;15.60;;
1693;SDS011;844;47.058;15.472;2023-02-14T11:09:01;16.73;;;15.03;;
1693;SDS011;844;47.058;15.472;2023-02-14T11:11:32;22.10;;;18.10;;
1693;SDS011;844;47.058;15.472;2023-02-14T11:14:17;18.97;;;15.43;;
1693;SDS011;844;47.058;15.472;2023-02-14T11:16:53;16.97;;;15.10;;
1693;SDS011;844;47.058;15.472;2023-02-14T11:19:26;18.17;;;15.37;;
1693;SDS011;844;47.058;15.472;2023-02-14T11:21:58;18.50;;;16.07;;
1693;SDS011;844;47.058;15.472;2023-02-14T11:24:29;22.63;;;15.47;;
1693;SDS011;844;47.058;15.472;2023-02-14T11:27:02;17.33;;;15.43;;
1693;SDS011;844;47.058;15.472;2023-02-14T11:29:42;20.73;;;15.83;;
1693;SDS011;844;47.058;15.472;2023-02-14T11:32:15;16.27;;;14.67;;
1693;SDS011;844;47.058;15.472;2023-02-14T11:34:53;16.63;;;14.83;;
1693;SDS011;844;47.058;15.472;2023-02-14T11:37:27;15.43;;;14.00;;
1693;SDS011;844;47.058;15.472;2023-02-14T11:39:59;17.40;;;15.60;;
1693;SDS011;844;47.058;15.472;2023-02-14T11:42:32;19.17;;;16.90;;
1693;SDS011;844;47.058;15.472;2023-02-14T11:45:05;17.70;;;15.43;;
1693;SDS011;844;47.058;15.472;2023-02-14T11:47:38;15.40;;;13.53;;
1693;SDS011;844;47.058;15.472;2023-02-14T11:50:21;14.73;;;13.37;;
1693;SDS011;844;47.058;15.472;2023-02-14T11:52:52;18.30;;;16.20;;
1693;SDS011;844;47.058;15.472;2023-02-14T11:55:26;16.73;;;15.07;;
1693;SDS011;844;47.058;15.472;2023-02-14T11:58:00;17.53;;;14.90;;
1693;SDS011;844;47.058;15.472;2023-02-14T12:00:31;15.73;;;14.23;;
1693;SDS011;844;47.058;15.472;2023-02-14T12:03:02;17.70;;;15.90;;
1693;SDS011;844;47.058;15.472;2023-02-14T12:05:44;16.97;;;14.83;;
1693;SDS011;844;47.058;15.472;2023-02-14T12:08:15;16.20;;;14.40;;
1693;SDS011;844;47.058;15.472;2023-02-14T12:10:59;16.30;;;14.63;;
1693;SDS011;844;47.058;15.472;2023-02-14T12:13:31;16.50;;;15.00;;
1693;SDS011;844;47.058;15.472;2023-02-14T12:16:02;18.03;;;15.70;;
1693;SDS011;844;47.058;15.472;2023-02-14T12:18:46;17.67;;;15.83;;
1693;SDS011;844;47.058;15.472;2023-02-14T12:21:24;17.33;;;15.43;;
1693;SDS011;844;47.058;15.472;2023-02-14T12:24:05;18.63;;;16.73;;
1693;SDS011;844;47.058;15.472;2023-02-14T12:26:44;17.07;;;15.40;;
1693;SDS011;844;47.058;15.472;2023-02-14T12:29:20;17.17;;;15.37;;
1693;SDS011;844;47.058;15.472;2023-02-14T12:31:53;18.10;;;15.77;;
1693;SDS011;844;47.058;15.472;2023-02-14T12:34:27;18.20;;;16.30;;
1693;SDS011;844;47.058;15.472;2023-02-14T12:37:06;19.10;;;17.10;;
1693;SDS011;844;47.058;15.472;2023-02-14T12:39:47;17.97;;;16.37;;
1693;SDS011;844;47.058;15.472;2023-02-14T12:42:32;18.20;;;16.40;;
1693;SDS011;844;47.058;15.472;2023-02-14T12:45:43;18.90;;;16.80;;
1693;SDS011;844;47.058;15.472;2023-02-14T12:48:29;17.00;;;15.30;;
1693;SDS011;844;47.058;15.472;2023-02-14T12:51:09;19.17;;;16.23;;
1693;SDS011;844;47.058;15.472;2023-02-14T12:53:48;17.37;;;15.83;;
1693;SDS011;844;47.058;15.472;2023-02-14T12:56:42;16.50;;;14.80;;
1693;SDS011;844;47.058;15.472;2023-02-14T12:59:22;19.43;;;16.67;;
1693;SDS011;844;47.058;15.472;2023-02-14T13:02:04;19.17;;;16.90;;
1693;SDS011;844;47.058;15.472;2023-02-14T13:05:00;17.83;;;16.00;;
1693;SDS011;844;47.058;15.472;2023-02-14T13:07:38;17.37;;;15.70;;
1693;SDS011;844;47.058;15.472;2023-02-14T13:10:21;19.80;;;16.00;;
1693;SDS011;844;47.058;15.472;2023-02-14T13:12:58;17.10;;;15.50;;
1693;SDS011;844;47.058;15.472;2023-02-14T13:15:35;16.30;;;14.70;;
1693;SDS011;844;47.058;15.472;2023-02-14T13:18:13;20.33;;;18.13;;
1693;SDS011;844;47.058;15.472;2023-02-14T13:20:47;15.87;;;14.30;;
1693;SDS011;844;47.058;15.472;2023-02-14T13:23:21;17.03;;;14.83;;
1693;SDS011;844;47.058;15.472;2023-02-14T13:25:57;17.87;;;16.20;;
1693;SDS011;844;47.058;15.472;2023-02-14T13:28:30;18.50;;;16.70;;
1693;SDS011;844;47.058;15.472;2023-02-14T13:31:01;18.47;;;16.70;;
1693;SDS011;844;47.058;15.472;2023-02-14T13:33:33;17.70;;;15.90;;
1693;SDS011;844;47.058;15.472;2023-02-14T13:36:06;16.33;;;14.73;;
1693;SDS011;844;47.058;15.472;2023-02-14T13:38:41;18.47;;;16.30;;
1693;SDS011;844;47.058;15.472;2023-02-14T13:41:15;18.30;;;16.43;;
1693;SDS011;844;47.058;15.472;2023-02-14T13:43:53;19.20;;;17.20;;
1693;SDS011;844;47.058;15.472;2023-02-14T13:49:28;17.20;;;15.50;;
1693;SDS011;844;47.058;15.472;2023-02-14T13:52:00;16.73;;;15.07;;
1693;SDS011;844;47.058;15.472;2023-02-14T13:54:32;19.10;;;16.67;;
1693;SDS011;844;47.058;15.472;2023-02-14T14:03:05;18.77;;;16.83;;
1693;SDS011;844;47.058;15.472;2023-02-14T14:05:48;18.70;;;16.50;;
1693;SDS011;844;47.058;15.472;2023-02-14T14:08:37;18.30;;;16.60;;
1693;SDS011;844;47.058;15.472;2023-02-14T14:11:10;16.63;;;14.87;;
1693;SDS011;844;47.058;15.472;2023-02-14T14:13:59;18.70;;;16.00;;
1693;SDS011;844;47.058;15.472;2023-02-14T14:16:31;16.70;;;15.00;;
1693;SDS011;844;47.058;15.472;2023-02-14T14:19:03;19.47;;;17.43;;
1693;SDS011;844;47.058;15.472;2023-02-14T14:22:01;16.03;;;14.33;;
1693;SDS011;844;47.058;15.472;2023-02-14T14:24:32;17.27;;;15.33;;
1693;SDS011;844;47.058;15.472;2023-02-14T14:27:05;20.43;;;13.93;;
1693;SDS011;844;47.058;15.472;2023-02-14T14:29:45;18.07;;;15.33;;
1693;SDS011;844;47.058;15.472;2023-02-14T14:32:17;18.97;;;17.03;;
1693;SDS011;844;47.058;15.472;2023-02-14T14:34:53;18.20;;;15.27;;
1693;SDS011;844;47.058;15.472;2023-02-14T14:37:25;16.73;;;15.10;;
1693;SDS011;844;47.058;15.472;2023-02-14T14:39:57;16.13;;;14.43;;
1693;SDS011;844;47.058;15.472;2023-02-14T14:42:29;17.10;;;15.47;;
1693;SDS011;844;47.058;15.472;2023-02-14T14:45:06;16.20;;;14.60;;
1693;SDS011;844;47.058;15.472;2023-02-14T14:47:39;16.03;;;14.50;;
1693;SDS011;844;47.058;15.472;2023-02-14T14:50:13;17.07;;;15.40;;
1693;SDS011;844;47.058;15.472;2023-02-14T14:52:45;18.27;;;15.30;;
1693;SDS011;844;47.058;15.472;2023-02-14T14:55:17;16.70;;;15.13;;
1693;SDS011;844;47.058;15.472;2023-02-14T14:57:49;16.67;;;14.43;;
1693;SDS011;844;47.058;15.472;2023-02-14T15:00:25;16.73;;;14.87;;
1693;SDS011;844;47.058;15.472;2023-02-14T15:02:58;16.23;;;14.73;;
1693;SDS011;844;47.058;15.472;2023-02-14T15:05:31;16.80;;;15.10;;
1693;SDS011;844;47.058;15.472;2023-02-14T15:08:14;25.50;;;20.40;;
1693;SDS011;844;47.058;15.472;2023-02-14T15:10:48;16.23;;;14.63;;
1693;SDS011;844;47.058;15.472;2023-02-14T15:13:22;15.57;;;14.03;;
1693;SDS011;844;47.058;15.472;2023-02-14T15:16:19;21.43;;;15.90;;
1693;SDS011;844;47.058;15.472;2023-02-14T15:18:52;17.73;;;16.00;;
1693;SDS011;844;47.058;15.472;2023-02-14T15:21:25;19.00;;;14.27;;
1693;SDS011;844;47.058;15.472;2023-02-14T15:23:57;17.00;;;15.20;;
1693;SDS011;844;47.058;15.472;2023-02-14T15:26:29;17.97;;;15.97;;
1693;SDS011;844;47.058;15.472;2023-02-14T15:29:02;15.67;;;14.17;;
1693;SDS011;844;47.058;15.472;2023-02-14T15:31:35;17.03;;;13.90;;
1693;SDS011;844;47.058;15.472;2023-02-14T15:34:08;15.30;;;13.70;;
1693;SDS011;844;47.058;15.472;2023-02-14T15:36:39;17.33;;;14.43;;
1693;SDS011;844;47.058;15.472;2023-02-14T15:39:21;15.70;;;13.70;;
1693;SDS011;844;47.058;15.472;2023-02-14T15:41:55;15.73;;;13.03;;
1693;SDS011;844;47.058;15.472;2023-02-14T15:44:27;18.00;;;14.80;;
1693;SDS011;844;47.058;15.472;2023-02-14T15:47:00;17.80;;;15.87;;
1693;SDS011;844;47.058;15.472;2023-02-14T15:49:34;14.83;;;13.43;;
1693;SDS011;844;47.058;15.472;2023-02-14T15:52:10;17.13;;;15.53;;
1693;SDS011;844;47.058;15.472;2023-02-14T15:54:41;17.07;;;15.03;;
1693;SDS011;844;47.058;15.472;2023-02-14T15:57:18;16.50;;;14.77;;